sensor_id;sensor_type;location;lat;lon;timestamp;P1;durP1;ratioP1;P2;durP2;ratioP2
23802;SDS011;12082;51.786;6.018;2023-06-22T00:02:05;29.13;;;27.03;;
23802;SDS011;12082;51.786;6.018;2023-06-22T00:04:31;28.43;;;26.50;;
23802;SDS011;12082;51.786;6.018;2023-06-22T00:06:56;30.37;;;28.03;;
23802;SDS011;12082;51.786;6.018;2023-06-22T00:09:22;29.97;;;27.87;;
23802;SDS011;12082;51.786;6.018;2023-06-22T00:11:48;30.53;;;28.23;;
23802;SDS011;12082;51.786;6.018;2023-06-22T00:14:13;30.80;;;28.27;;
23802;SDS011;12082;51.786;6.018;2023-06-22T00:16:39;29.50;;;27.37;;
23802;SDS011;12082;51.786;6.018;2023-06-22T00:19:04;29.83;;;27.70;;
23802;SDS011;12082;51.786;6.018;2023-06-22T00:21:30;30.70;;;28.30;;
23802;SDS011;12082;51.786;6.018;2023-06-22T00:23:56;31.00;;;28.60;;
23802;SDS011;12082;51.786;6.018;2023-06-22T00:26:22;29.27;;;27.07;;
23802;SDS011;12082;51.786;6.018;2023-06-22T00:28:48;29.13;;;27.00;;
23802;SDS011;12082;51.786;6.018;2023-06-22T00:31:13;29.43;;;27.33;;
23802;SDS011;12082;51.786;6.018;2023-06-22T00:33:39;32.40;;;29.97;;
23802;SDS011;12082;51.786;6.018;2023-06-22T00:36:05;31.77;;;29.40;;
23802;SDS011;12082;51.786;6.018;2023-06-22T00:38:32;34.23;;;31.60;;
23802;SDS011;12082;51.786;6.018;2023-06-22T00:40:58;36.37;;;33.43;;
23802;SDS011;12082;51.786;6.018;2023-06-22T00:43:24;40.80;;;37.40;;
23802;SDS011;12082;51.786;6.018;2023-06-22T00:45:49;37.20;;;34.27;;
23802;SDS011;12082;51.786;6.018;2023-06-22T00:48:15;36.37;;;33.63;;
23802;SDS011;12082;51.786;6.018;2023-06-22T00:50:41;35.53;;;32.90;;
23802;SDS011;12082;51.786;6.018;2023-06-22T00:53:08;35.83;;;32.80;;
23802;SDS011;12082;51.786;6.018;2023-06-22T00:55:37;34.33;;;31.50;;
23802;SDS011;12082;51.786;6.018;2023-06-22T00:58:08;36.80;;;33.47;;
23802;SDS011;12082;51.786;6.018;2023-06-22T01:00:35;35.47;;;32.67;;
23802;SDS011;12082;51.786;6.018;2023-06-22T01:03:01;35.50;;;32.67;;
23802;SDS011;12082;51.786;6.018;2023-06-22T01:05:27;35.20;;;32.40;;
23802;SDS011;12082;51.786;6.018;2023-06-22T01:10:48;37.47;;;34.27;;
23802;SDS011;12082;51.786;6.018;2023-06-22T01:19:01;31.53;;;28.83;;
23802;SDS011;12082;51.786;6.018;2023-06-22T01:21:46;31.87;;;28.97;;
23802;SDS011;12082;51.786;6.018;2023-06-22T01:29:58;29.13;;;26.77;;
23802;SDS011;12082;51.786;6.018;2023-06-22T01:32:28;29.63;;;26.90;;
23802;SDS011;12082;51.786;6.018;2023-06-22T01:35:00;28.17;;;25.67;;
23802;SDS011;12082;51.786;6.018;2023-06-22T01:37:28;29.83;;;27.33;;
23802;SDS011;12082;51.786;6.018;2023-06-22T01:39:56;34.03;;;30.63;;
23802;SDS011;12082;51.786;6.018;2023-06-22T01:42:23;31.53;;;28.73;;
23802;SDS011;12082;51.786;6.018;2023-06-22T01:44:50;32.97;;;29.77;;
23802;SDS011;12082;51.786;6.018;2023-06-22T01:47:17;31.50;;;28.57;;
23802;SDS011;12082;51.786;6.018;2023-06-22T01:49:43;33.87;;;30.60;;
23802;SDS011;12082;51.786;6.018;2023-06-22T01:52:09;33.50;;;30.40;;
23802;SDS011;12082;51.786;6.018;2023-06-22T01:54:34;33.17;;;29.97;;
23802;SDS011;12082;51.786;6.018;2023-06-22T01:57:00;34.13;;;31.03;;
23802;SDS011;12082;51.786;6.018;2023-06-22T01:59:30;36.27;;;32.60;;
23802;SDS011;12082;51.786;6.018;2023-06-22T02:02:06;35.00;;;31.73;;
23802;SDS011;12082;51.786;6.018;2023-06-22T02:04:36;34.43;;;31.33;;
23802;SDS011;12082;51.786;6.018;2023-06-22T02:07:17;34.17;;;31.20;;
23802;SDS011;12082;51.786;6.018;2023-06-22T02:09:44;32.17;;;29.37;;
23802;SDS011;12082;51.786;6.018;2023-06-22T02:12:12;30.60;;;28.00;;
23802;SDS011;12082;51.786;6.018;2023-06-22T02:14:41;31.07;;;28.20;;
23802;SDS011;12082;51.786;6.018;2023-06-22T02:17:08;31.27;;;28.57;;
23802;SDS011;12082;51.786;6.018;2023-06-22T02:19:37;32.13;;;29.20;;
23802;SDS011;12082;51.786;6.018;2023-06-22T02:22:04;31.07;;;28.47;;
23802;SDS011;12082;51.786;6.018;2023-06-22T02:24:30;31.87;;;29.17;;
23802;SDS011;12082;51.786;6.018;2023-06-22T02:27:00;33.57;;;30.17;;
23802;SDS011;12082;51.786;6.018;2023-06-22T02:29:27;30.33;;;27.83;;
23802;SDS011;12082;51.786;6.018;2023-06-22T02:31:53;29.77;;;27.23;;
23802;SDS011;12082;51.786;6.018;2023-06-22T02:34:20;29.07;;;26.57;;
23802;SDS011;12082;51.786;6.018;2023-06-22T02:36:47;31.20;;;28.30;;
23802;SDS011;12082;51.786;6.018;2023-06-22T02:39:25;30.83;;;27.97;;
23802;SDS011;12082;51.786;6.018;2023-06-22T02:41:51;31.27;;;28.37;;
23802;SDS011;12082;51.786;6.018;2023-06-22T02:44:17;31.37;;;28.33;;
23802;SDS011;12082;51.786;6.018;2023-06-22T02:46:43;33.70;;;30.73;;
23802;SDS011;12082;51.786;6.018;2023-06-22T02:49:09;33.23;;;30.20;;
23802;SDS011;12082;51.786;6.018;2023-06-22T02:51:37;34.77;;;31.67;;
23802;SDS011;12082;51.786;6.018;2023-06-22T02:54:04;35.43;;;32.43;;
23802;SDS011;12082;51.786;6.018;2023-06-22T02:56:30;33.43;;;30.60;;
23802;SDS011;12082;51.786;6.018;2023-06-22T02:58:56;34.17;;;31.07;;
23802;SDS011;12082;51.786;6.018;2023-06-22T03:01:26;34.87;;;31.73;;
23802;SDS011;12082;51.786;6.018;2023-06-22T03:03:55;36.07;;;32.87;;
23802;SDS011;12082;51.786;6.018;2023-06-22T03:06:21;34.10;;;31.30;;
23802;SDS011;12082;51.786;6.018;2023-06-22T03:08:48;34.93;;;31.97;;
23802;SDS011;12082;51.786;6.018;2023-06-22T03:11:14;35.13;;;32.13;;
23802;SDS011;12082;51.786;6.018;2023-06-22T03:13:40;36.23;;;33.13;;
23802;SDS011;12082;51.786;6.018;2023-06-22T03:16:05;35.20;;;32.03;;
23802;SDS011;12082;51.786;6.018;2023-06-22T03:18:31;36.13;;;32.87;;
23802;SDS011;12082;51.786;6.018;2023-06-22T03:20:56;39.57;;;35.53;;
23802;SDS011;12082;51.786;6.018;2023-06-22T03:23:22;38.40;;;34.90;;
23802;SDS011;12082;51.786;6.018;2023-06-22T03:25:47;35.47;;;32.27;;
23802;SDS011;12082;51.786;6.018;2023-06-22T03:28:13;37.17;;;33.87;;
23802;SDS011;12082;51.786;6.018;2023-06-22T03:30:38;36.10;;;32.87;;
23802;SDS011;12082;51.786;6.018;2023-06-22T03:33:04;36.20;;;32.93;;
23802;SDS011;12082;51.786;6.018;2023-06-22T03:35:29;35.70;;;32.57;;
23802;SDS011;12082;51.786;6.018;2023-06-22T03:37:55;36.67;;;33.27;;
23802;SDS011;12082;51.786;6.018;2023-06-22T03:40:21;38.43;;;35.00;;
23802;SDS011;12082;51.786;6.018;2023-06-22T03:42:46;36.03;;;33.07;;
23802;SDS011;12082;51.786;6.018;2023-06-22T03:45:12;38.57;;;35.20;;
23802;SDS011;12082;51.786;6.018;2023-06-22T03:47:37;40.07;;;36.07;;
23802;SDS011;12082;51.786;6.018;2023-06-22T03:50:03;40.00;;;35.87;;
23802;SDS011;12082;51.786;6.018;2023-06-22T03:52:29;36.57;;;32.90;;
23802;SDS011;12082;51.786;6.018;2023-06-22T03:54:55;34.80;;;31.67;;
23802;SDS011;12082;51.786;6.018;2023-06-22T03:57:21;37.27;;;33.37;;
23802;SDS011;12082;51.786;6.018;2023-06-22T03:59:46;33.77;;;30.87;;
23802;SDS011;12082;51.786;6.018;2023-06-22T04:02:12;34.70;;;31.33;;
23802;SDS011;12082;51.786;6.018;2023-06-22T04:04:37;34.23;;;31.07;;
23802;SDS011;12082;51.786;6.018;2023-06-22T04:07:04;35.27;;;31.93;;
23802;SDS011;12082;51.786;6.018;2023-06-22T04:09:30;34.50;;;31.30;;
23802;SDS011;12082;51.786;6.018;2023-06-22T04:11:55;34.13;;;30.80;;
23802;SDS011;12082;51.786;6.018;2023-06-22T04:14:21;37.90;;;34.30;;
23802;SDS011;12082;51.786;6.018;2023-06-22T04:16:46;36.67;;;32.90;;
23802;SDS011;12082;51.786;6.018;2023-06-22T04:19:12;34.87;;;31.67;;
23802;SDS011;12082;51.786;6.018;2023-06-22T04:21:41;35.73;;;32.10;;
23802;SDS011;12082;51.786;6.018;2023-06-22T04:24:08;37.60;;;33.90;;
23802;SDS011;12082;51.786;6.018;2023-06-22T04:26:33;36.57;;;32.93;;
23802;SDS011;12082;51.786;6.018;2023-06-22T04:29:01;36.83;;;33.40;;
23802;SDS011;12082;51.786;6.018;2023-06-22T04:31:30;39.07;;;35.37;;
23802;SDS011;12082;51.786;6.018;2023-06-22T04:34:01;37.27;;;33.73;;
23802;SDS011;12082;51.786;6.018;2023-06-22T04:36:38;39.80;;;35.90;;
23802;SDS011;12082;51.786;6.018;2023-06-22T04:39:09;40.97;;;36.93;;
23802;SDS011;12082;51.786;6.018;2023-06-22T04:41:36;39.90;;;36.20;;
23802;SDS011;12082;51.786;6.018;2023-06-22T04:44:09;39.20;;;35.50;;
23802;SDS011;12082;51.786;6.018;2023-06-22T04:46:51;41.83;;;38.10;;
23802;SDS011;12082;51.786;6.018;2023-06-22T04:49:24;38.97;;;35.30;;
23802;SDS011;12082;51.786;6.018;2023-06-22T04:51:57;40.87;;;36.60;;
23802;SDS011;12082;51.786;6.018;2023-06-22T04:54:24;44.40;;;40.30;;
23802;SDS011;12082;51.786;6.018;2023-06-22T04:56:49;41.10;;;37.13;;
23802;SDS011;12082;51.786;6.018;2023-06-22T04:59:21;42.90;;;39.13;;
23802;SDS011;12082;51.786;6.018;2023-06-22T05:01:56;45.50;;;41.20;;
23802;SDS011;12082;51.786;6.018;2023-06-22T05:04:23;47.63;;;43.30;;
23802;SDS011;12082;51.786;6.018;2023-06-22T05:06:50;49.33;;;44.93;;
23802;SDS011;12082;51.786;6.018;2023-06-22T05:09:16;50.80;;;46.30;;
23802;SDS011;12082;51.786;6.018;2023-06-22T05:11:42;53.00;;;47.97;;
23802;SDS011;12082;51.786;6.018;2023-06-22T05:14:08;53.57;;;48.67;;
23802;SDS011;12082;51.786;6.018;2023-06-22T05:16:34;51.07;;;46.57;;
23802;SDS011;12082;51.786;6.018;2023-06-22T05:19:00;54.40;;;49.00;;
23802;SDS011;12082;51.786;6.018;2023-06-22T05:21:28;51.73;;;47.10;;
23802;SDS011;12082;51.786;6.018;2023-06-22T05:23:54;56.57;;;51.30;;
23802;SDS011;12082;51.786;6.018;2023-06-22T05:26:24;55.23;;;49.57;;
23802;SDS011;12082;51.786;6.018;2023-06-22T05:28:51;55.50;;;50.00;;
23802;SDS011;12082;51.786;6.018;2023-06-22T05:31:16;57.87;;;52.57;;
23802;SDS011;12082;51.786;6.018;2023-06-22T05:33:44;55.67;;;50.70;;
23802;SDS011;12082;51.786;6.018;2023-06-22T05:36:11;55.87;;;50.53;;
23802;SDS011;12082;51.786;6.018;2023-06-22T05:38:37;56.57;;;51.67;;
23802;SDS011;12082;51.786;6.018;2023-06-22T05:41:04;52.53;;;47.73;;
23802;SDS011;12082;51.786;6.018;2023-06-22T05:43:30;46.67;;;42.27;;
23802;SDS011;12082;51.786;6.018;2023-06-22T05:45:56;46.10;;;42.00;;
23802;SDS011;12082;51.786;6.018;2023-06-22T05:48:22;41.37;;;37.30;;
23802;SDS011;12082;51.786;6.018;2023-06-22T05:50:48;33.60;;;30.30;;
23802;SDS011;12082;51.786;6.018;2023-06-22T05:53:13;31.07;;;28.07;;
23802;SDS011;12082;51.786;6.018;2023-06-22T05:55:39;36.87;;;33.27;;
23802;SDS011;12082;51.786;6.018;2023-06-22T05:58:05;34.13;;;31.03;;
23802;SDS011;12082;51.786;6.018;2023-06-22T06:00:31;33.20;;;30.37;;
23802;SDS011;12082;51.786;6.018;2023-06-22T06:02:56;37.77;;;34.07;;
23802;SDS011;12082;51.786;6.018;2023-06-22T06:05:28;36.87;;;33.57;;
23802;SDS011;12082;51.786;6.018;2023-06-22T06:07:54;41.27;;;38.00;;
23802;SDS011;12082;51.786;6.018;2023-06-22T06:10:19;34.60;;;31.60;;
23802;SDS011;12082;51.786;6.018;2023-06-22T06:12:45;28.80;;;25.97;;
23802;SDS011;12082;51.786;6.018;2023-06-22T06:15:10;30.13;;;27.47;;
23802;SDS011;12082;51.786;6.018;2023-06-22T06:17:36;30.27;;;27.37;;
23802;SDS011;12082;51.786;6.018;2023-06-22T06:20:18;32.57;;;29.67;;
23802;SDS011;12082;51.786;6.018;2023-06-22T06:22:45;31.87;;;28.87;;
23802;SDS011;12082;51.786;6.018;2023-06-22T06:25:11;32.10;;;28.93;;
23802;SDS011;12082;51.786;6.018;2023-06-22T06:27:43;30.77;;;27.90;;
23802;SDS011;12082;51.786;6.018;2023-06-22T06:30:10;30.53;;;27.57;;
23802;SDS011;12082;51.786;6.018;2023-06-22T06:32:37;29.83;;;27.20;;
23802;SDS011;12082;51.786;6.018;2023-06-22T06:35:04;31.27;;;28.37;;
23802;SDS011;12082;51.786;6.018;2023-06-22T06:37:36;30.60;;;27.80;;
23802;SDS011;12082;51.786;6.018;2023-06-22T06:40:07;30.60;;;27.70;;
23802;SDS011;12082;51.786;6.018;2023-06-22T06:42:40;31.27;;;28.37;;
23802;SDS011;12082;51.786;6.018;2023-06-22T06:45:09;33.27;;;28.63;;
23802;SDS011;12082;51.786;6.018;2023-06-22T06:47:40;30.77;;;27.83;;
23802;SDS011;12082;51.786;6.018;2023-06-22T06:50:06;33.63;;;30.53;;
23802;SDS011;12082;51.786;6.018;2023-06-22T06:52:32;31.70;;;28.37;;
23802;SDS011;12082;51.786;6.018;2023-06-22T06:54:58;32.77;;;29.73;;
23802;SDS011;12082;51.786;6.018;2023-06-22T06:57:24;31.10;;;28.13;;
23802;SDS011;12082;51.786;6.018;2023-06-22T06:59:54;38.23;;;29.40;;
23802;SDS011;12082;51.786;6.018;2023-06-22T07:02:21;31.90;;;29.00;;
23802;SDS011;12082;51.786;6.018;2023-06-22T07:04:47;32.37;;;29.27;;
23802;SDS011;12082;51.786;6.018;2023-06-22T07:07:13;34.63;;;31.03;;
23802;SDS011;12082;51.786;6.018;2023-06-22T07:09:39;32.77;;;29.77;;
23802;SDS011;12082;51.786;6.018;2023-06-22T07:12:05;35.20;;;31.87;;
23802;SDS011;12082;51.786;6.018;2023-06-22T07:14:31;33.43;;;30.07;;
23802;SDS011;12082;51.786;6.018;2023-06-22T07:16:57;32.77;;;29.87;;
23802;SDS011;12082;51.786;6.018;2023-06-22T07:19:26;35.93;;;32.37;;
23802;SDS011;12082;51.786;6.018;2023-06-22T07:21:53;32.60;;;29.43;;
23802;SDS011;12082;51.786;6.018;2023-06-22T07:24:22;34.03;;;30.60;;
23802;SDS011;12082;51.786;6.018;2023-06-22T07:26:48;34.43;;;31.23;;
23802;SDS011;12082;51.786;6.018;2023-06-22T07:29:15;32.00;;;28.83;;
23802;SDS011;12082;51.786;6.018;2023-06-22T07:31:45;32.57;;;29.37;;
23802;SDS011;12082;51.786;6.018;2023-06-22T07:34:12;32.27;;;29.37;;
23802;SDS011;12082;51.786;6.018;2023-06-22T07:36:38;38.17;;;29.97;;
23802;SDS011;12082;51.786;6.018;2023-06-22T07:39:04;34.37;;;29.13;;
23802;SDS011;12082;51.786;6.018;2023-06-22T07:41:29;32.73;;;29.53;;
23802;SDS011;12082;51.786;6.018;2023-06-22T07:43:55;32.53;;;28.83;;
23802;SDS011;12082;51.786;6.018;2023-06-22T07:46:21;30.70;;;27.70;;
23802;SDS011;12082;51.786;6.018;2023-06-22T07:48:47;33.57;;;28.17;;
23802;SDS011;12082;51.786;6.018;2023-06-22T07:51:12;30.73;;;27.83;;
23802;SDS011;12082;51.786;6.018;2023-06-22T07:53:42;33.43;;;30.37;;
23802;SDS011;12082;51.786;6.018;2023-06-22T07:56:11;33.30;;;29.83;;
23802;SDS011;12082;51.786;6.018;2023-06-22T07:58:37;34.27;;;31.07;;
23802;SDS011;12082;51.786;6.018;2023-06-22T08:01:03;31.53;;;28.40;;
23802;SDS011;12082;51.786;6.018;2023-06-22T08:03:28;33.77;;;30.50;;
23802;SDS011;12082;51.786;6.018;2023-06-22T08:05:54;34.40;;;31.20;;
23802;SDS011;12082;51.786;6.018;2023-06-22T08:08:20;35.17;;;31.87;;
23802;SDS011;12082;51.786;6.018;2023-06-22T08:10:46;35.87;;;32.27;;
23802;SDS011;12082;51.786;6.018;2023-06-22T08:13:11;34.27;;;31.10;;
23802;SDS011;12082;51.786;6.018;2023-06-22T08:15:37;31.97;;;29.13;;
23802;SDS011;12082;51.786;6.018;2023-06-22T08:18:02;33.13;;;29.93;;
23802;SDS011;12082;51.786;6.018;2023-06-22T08:20:28;29.27;;;26.57;;
23802;SDS011;12082;51.786;6.018;2023-06-22T08:22:56;35.27;;;29.47;;
23802;SDS011;12082;51.786;6.018;2023-06-22T08:25:24;29.93;;;26.93;;
23802;SDS011;12082;51.786;6.018;2023-06-22T08:27:51;29.20;;;26.10;;
23802;SDS011;12082;51.786;6.018;2023-06-22T08:30:17;28.40;;;25.63;;
23802;SDS011;12082;51.786;6.018;2023-06-22T08:32:43;27.50;;;24.80;;
23802;SDS011;12082;51.786;6.018;2023-06-22T08:35:09;28.33;;;25.50;;
23802;SDS011;12082;51.786;6.018;2023-06-22T08:37:35;27.23;;;24.70;;
23802;SDS011;12082;51.786;6.018;2023-06-22T08:40:02;27.33;;;24.73;;
23802;SDS011;12082;51.786;6.018;2023-06-22T08:42:33;27.50;;;24.87;;
23802;SDS011;12082;51.786;6.018;2023-06-22T08:44:58;25.80;;;23.27;;
23802;SDS011;12082;51.786;6.018;2023-06-22T08:47:24;25.77;;;23.27;;
23802;SDS011;12082;51.786;6.018;2023-06-22T08:49:49;35.17;;;31.93;;
23802;SDS011;12082;51.786;6.018;2023-06-22T08:52:15;22.97;;;20.70;;
23802;SDS011;12082;51.786;6.018;2023-06-22T08:54:42;25.43;;;20.80;;
23802;SDS011;12082;51.786;6.018;2023-06-22T08:57:08;21.37;;;19.37;;
23802;SDS011;12082;51.786;6.018;2023-06-22T08:59:33;21.87;;;19.60;;
23802;SDS011;12082;51.786;6.018;2023-06-22T09:01:59;21.27;;;19.47;;
23802;SDS011;12082;51.786;6.018;2023-06-22T09:04:24;22.57;;;20.57;;
23802;SDS011;12082;51.786;6.018;2023-06-22T09:06:50;23.57;;;21.13;;
23802;SDS011;12082;51.786;6.018;2023-06-22T09:09:17;21.73;;;19.50;;
23802;SDS011;12082;51.786;6.018;2023-06-22T09:11:43;19.73;;;17.73;;
23802;SDS011;12082;51.786;6.018;2023-06-22T09:14:09;21.40;;;19.30;;
23802;SDS011;12082;51.786;6.018;2023-06-22T09:16:35;24.60;;;20.60;;
23802;SDS011;12082;51.786;6.018;2023-06-22T09:19:01;20.87;;;18.83;;
23802;SDS011;12082;51.786;6.018;2023-06-22T09:21:26;40.83;;;20.10;;
23802;SDS011;12082;51.786;6.018;2023-06-22T09:23:52;22.77;;;17.87;;
23802;SDS011;12082;51.786;6.018;2023-06-22T09:26:18;18.17;;;16.33;;
23802;SDS011;12082;51.786;6.018;2023-06-22T09:28:44;20.27;;;18.37;;
23802;SDS011;12082;51.786;6.018;2023-06-22T09:31:10;19.33;;;17.40;;
23802;SDS011;12082;51.786;6.018;2023-06-22T09:33:37;20.27;;;18.37;;
23802;SDS011;12082;51.786;6.018;2023-06-22T09:36:06;28.97;;;20.10;;
23802;SDS011;12082;51.786;6.018;2023-06-22T09:38:35;18.67;;;16.87;;
23802;SDS011;12082;51.786;6.018;2023-06-22T09:41:03;18.93;;;16.90;;
23802;SDS011;12082;51.786;6.018;2023-06-22T09:43:31;17.77;;;16.23;;
23802;SDS011;12082;51.786;6.018;2023-06-22T09:45:57;19.70;;;17.90;;
23802;SDS011;12082;51.786;6.018;2023-06-22T09:48:22;19.37;;;17.43;;
23802;SDS011;12082;51.786;6.018;2023-06-22T09:50:48;19.40;;;17.43;;
23802;SDS011;12082;51.786;6.018;2023-06-22T09:53:14;18.90;;;16.87;;
23802;SDS011;12082;51.786;6.018;2023-06-22T09:55:39;17.50;;;15.60;;
23802;SDS011;12082;51.786;6.018;2023-06-22T09:58:05;16.97;;;15.37;;
23802;SDS011;12082;51.786;6.018;2023-06-22T10:00:31;16.73;;;15.23;;
23802;SDS011;12082;51.786;6.018;2023-06-22T10:02:56;16.60;;;15.10;;
23802;SDS011;12082;51.786;6.018;2023-06-22T10:05:22;16.70;;;15.10;;
23802;SDS011;12082;51.786;6.018;2023-06-22T10:07:48;17.67;;;15.73;;
23802;SDS011;12082;51.786;6.018;2023-06-22T10:10:14;16.37;;;14.77;;
23802;SDS011;12082;51.786;6.018;2023-06-22T10:12:45;15.83;;;14.30;;
23802;SDS011;12082;51.786;6.018;2023-06-22T10:15:12;17.27;;;15.47;;
23802;SDS011;12082;51.786;6.018;2023-06-22T10:17:38;20.20;;;15.97;;
23802;SDS011;12082;51.786;6.018;2023-06-22T10:20:04;17.37;;;15.67;;
23802;SDS011;12082;51.786;6.018;2023-06-22T10:22:46;17.67;;;15.87;;
23802;SDS011;12082;51.786;6.018;2023-06-22T10:25:12;16.37;;;14.97;;
23802;SDS011;12082;51.786;6.018;2023-06-22T10:27:38;18.13;;;15.33;;
23802;SDS011;12082;51.786;6.018;2023-06-22T10:30:07;18.40;;;16.73;;
23802;SDS011;12082;51.786;6.018;2023-06-22T10:32:34;19.57;;;17.67;;
23802;SDS011;12082;51.786;6.018;2023-06-22T10:34:59;22.77;;;17.43;;
23802;SDS011;12082;51.786;6.018;2023-06-22T10:37:25;18.53;;;17.03;;
23802;SDS011;12082;51.786;6.018;2023-06-22T10:39:50;19.30;;;17.67;;
23802;SDS011;12082;51.786;6.018;2023-06-22T10:42:16;21.20;;;19.37;;
23802;SDS011;12082;51.786;6.018;2023-06-22T10:44:42;19.20;;;17.47;;
23802;SDS011;12082;51.786;6.018;2023-06-22T10:47:09;22.13;;;19.93;;
23802;SDS011;12082;51.786;6.018;2023-06-22T10:49:36;21.23;;;19.23;;
23802;SDS011;12082;51.786;6.018;2023-06-22T10:52:07;18.43;;;16.73;;
23802;SDS011;12082;51.786;6.018;2023-06-22T10:54:34;19.60;;;17.90;;
23802;SDS011;12082;51.786;6.018;2023-06-22T10:57:01;21.10;;;19.17;;
23802;SDS011;12082;51.786;6.018;2023-06-22T10:59:27;20.63;;;18.83;;
23802;SDS011;12082;51.786;6.018;2023-06-22T11:01:53;21.97;;;20.07;;
23802;SDS011;12082;51.786;6.018;2023-06-22T11:04:20;21.07;;;19.27;;
23802;SDS011;12082;51.786;6.018;2023-06-22T11:06:45;21.13;;;19.17;;
23802;SDS011;12082;51.786;6.018;2023-06-22T11:09:11;22.50;;;20.27;;
23802;SDS011;12082;51.786;6.018;2023-06-22T11:11:36;19.77;;;18.00;;
23802;SDS011;12082;51.786;6.018;2023-06-22T11:14:02;25.30;;;18.90;;
23802;SDS011;12082;51.786;6.018;2023-06-22T11:16:27;19.93;;;18.10;;
23802;SDS011;12082;51.786;6.018;2023-06-22T11:18:53;21.70;;;19.80;;
23802;SDS011;12082;51.786;6.018;2023-06-22T11:21:19;21.63;;;18.83;;
23802;SDS011;12082;51.786;6.018;2023-06-22T11:23:44;21.43;;;19.50;;
23802;SDS011;12082;51.786;6.018;2023-06-22T11:26:10;21.93;;;19.90;;
23802;SDS011;12082;51.786;6.018;2023-06-22T11:28:35;23.90;;;21.37;;
23802;SDS011;12082;51.786;6.018;2023-06-22T11:31:01;23.30;;;21.10;;
23802;SDS011;12082;51.786;6.018;2023-06-22T11:33:26;24.77;;;22.53;;
23802;SDS011;12082;51.786;6.018;2023-06-22T11:35:52;25.10;;;22.63;;
23802;SDS011;12082;51.786;6.018;2023-06-22T11:38:18;24.93;;;22.60;;
23802;SDS011;12082;51.786;6.018;2023-06-22T11:40:43;26.70;;;23.97;;
23802;SDS011;12082;51.786;6.018;2023-06-22T11:43:09;28.13;;;25.23;;
23802;SDS011;12082;51.786;6.018;2023-06-22T11:45:34;28.30;;;25.40;;
23802;SDS011;12082;51.786;6.018;2023-06-22T11:48:00;30.37;;;27.27;;
23802;SDS011;12082;51.786;6.018;2023-06-22T11:50:25;29.03;;;26.37;;
23802;SDS011;12082;51.786;6.018;2023-06-22T11:52:51;36.27;;;32.97;;
23802;SDS011;12082;51.786;6.018;2023-06-22T11:55:17;38.23;;;34.73;;
23802;SDS011;12082;51.786;6.018;2023-06-22T11:57:53;40.70;;;36.37;;
23802;SDS011;12082;51.786;6.018;2023-06-22T12:00:20;45.60;;;41.37;;
23802;SDS011;12082;51.786;6.018;2023-06-22T12:02:48;51.23;;;46.43;;
23802;SDS011;12082;51.786;6.018;2023-06-22T12:05:16;48.67;;;44.27;;
23802;SDS011;12082;51.786;6.018;2023-06-22T12:07:41;49.83;;;45.10;;
23802;SDS011;12082;51.786;6.018;2023-06-22T12:10:07;51.03;;;45.70;;
23802;SDS011;12082;51.786;6.018;2023-06-22T12:12:33;57.03;;;51.03;;
23802;SDS011;12082;51.786;6.018;2023-06-22T12:14:58;54.43;;;48.67;;
23802;SDS011;12082;51.786;6.018;2023-06-22T12:17:28;58.93;;;49.30;;
23802;SDS011;12082;51.786;6.018;2023-06-22T12:19:53;56.63;;;50.37;;
23802;SDS011;12082;51.786;6.018;2023-06-22T12:22:19;57.53;;;51.70;;
23802;SDS011;12082;51.786;6.018;2023-06-22T12:24:44;58.73;;;52.63;;
23802;SDS011;12082;51.786;6.018;2023-06-22T12:27:10;62.17;;;55.37;;
23802;SDS011;12082;51.786;6.018;2023-06-22T12:29:35;60.60;;;54.13;;
23802;SDS011;12082;51.786;6.018;2023-06-22T12:32:01;62.10;;;55.73;;
23802;SDS011;12082;51.786;6.018;2023-06-22T12:34:26;64.83;;;57.77;;
23802;SDS011;12082;51.786;6.018;2023-06-22T12:36:52;69.30;;;62.27;;
23802;SDS011;12082;51.786;6.018;2023-06-22T12:39:19;71.50;;;63.93;;
23802;SDS011;12082;51.786;6.018;2023-06-22T12:41:45;71.50;;;63.40;;
23802;SDS011;12082;51.786;6.018;2023-06-22T12:44:10;70.17;;;63.03;;
23802;SDS011;12082;51.786;6.018;2023-06-22T12:46:36;74.23;;;66.23;;
23802;SDS011;12082;51.786;6.018;2023-06-22T12:49:03;79.23;;;70.27;;
23802;SDS011;12082;51.786;6.018;2023-06-22T12:51:30;74.33;;;65.53;;
23802;SDS011;12082;51.786;6.018;2023-06-22T12:53:55;73.57;;;59.27;;
23802;SDS011;12082;51.786;6.018;2023-06-22T12:56:21;73.77;;;63.70;;
23802;SDS011;12082;51.786;6.018;2023-06-22T12:58:47;71.10;;;63.40;;
23802;SDS011;12082;51.786;6.018;2023-06-22T13:01:12;70.97;;;62.30;;
23802;SDS011;12082;51.786;6.018;2023-06-22T13:03:38;74.03;;;64.77;;
23802;SDS011;12082;51.786;6.018;2023-06-22T13:06:04;71.40;;;63.87;;
23802;SDS011;12082;51.786;6.018;2023-06-22T13:08:30;71.67;;;64.10;;
23802;SDS011;12082;51.786;6.018;2023-06-22T13:10:55;75.87;;;68.03;;
23802;SDS011;12082;51.786;6.018;2023-06-22T13:13:25;73.90;;;65.93;;
23802;SDS011;12082;51.786;6.018;2023-06-22T13:15:52;76.40;;;68.40;;
23802;SDS011;12082;51.786;6.018;2023-06-22T13:18:18;76.93;;;68.63;;
23802;SDS011;12082;51.786;6.018;2023-06-22T13:20:44;73.63;;;65.90;;
23802;SDS011;12082;51.786;6.018;2023-06-22T13:23:10;81.20;;;72.50;;
23802;SDS011;12082;51.786;6.018;2023-06-22T13:25:36;79.43;;;71.47;;
23802;SDS011;12082;51.786;6.018;2023-06-22T13:28:02;82.57;;;73.77;;
23802;SDS011;12082;51.786;6.018;2023-06-22T13:30:27;80.67;;;72.27;;
23802;SDS011;12082;51.786;6.018;2023-06-22T13:32:53;83.13;;;74.73;;
23802;SDS011;12082;51.786;6.018;2023-06-22T13:35:18;81.57;;;73.93;;
23802;SDS011;12082;51.786;6.018;2023-06-22T13:37:44;81.37;;;73.30;;
23802;SDS011;12082;51.786;6.018;2023-06-22T13:40:10;85.30;;;77.00;;
23802;SDS011;12082;51.786;6.018;2023-06-22T13:42:35;81.57;;;73.23;;
23802;SDS011;12082;51.786;6.018;2023-06-22T13:45:01;78.87;;;71.47;;
23802;SDS011;12082;51.786;6.018;2023-06-22T13:47:28;81.00;;;72.43;;
23802;SDS011;12082;51.786;6.018;2023-06-22T13:49:55;84.40;;;75.77;;
23802;SDS011;12082;51.786;6.018;2023-06-22T13:52:20;78.07;;;70.30;;
23802;SDS011;12082;51.786;6.018;2023-06-22T13:54:46;79.93;;;71.77;;
23802;SDS011;12082;51.786;6.018;2023-06-22T13:57:11;79.07;;;71.20;;
23802;SDS011;12082;51.786;6.018;2023-06-22T13:59:37;86.70;;;77.57;;
23802;SDS011;12082;51.786;6.018;2023-06-22T14:02:02;93.27;;;83.83;;
23802;SDS011;12082;51.786;6.018;2023-06-22T14:04:28;91.40;;;81.73;;
23802;SDS011;12082;51.786;6.018;2023-06-22T14:06:54;91.00;;;81.97;;
23802;SDS011;12082;51.786;6.018;2023-06-22T14:09:20;84.53;;;75.80;;
23802;SDS011;12082;51.786;6.018;2023-06-22T14:11:46;84.20;;;75.83;;
23802;SDS011;12082;51.786;6.018;2023-06-22T14:14:12;84.50;;;75.57;;
23802;SDS011;12082;51.786;6.018;2023-06-22T14:16:37;80.93;;;72.73;;
23802;SDS011;12082;51.786;6.018;2023-06-22T14:19:03;75.33;;;67.60;;
23802;SDS011;12082;51.786;6.018;2023-06-22T14:21:28;79.23;;;70.57;;
23802;SDS011;12082;51.786;6.018;2023-06-22T14:23:54;82.50;;;73.57;;
23802;SDS011;12082;51.786;6.018;2023-06-22T14:26:20;80.10;;;70.47;;
23802;SDS011;12082;51.786;6.018;2023-06-22T14:28:46;82.33;;;70.97;;
23802;SDS011;12082;51.786;6.018;2023-06-22T14:31:17;78.30;;;69.87;;
23802;SDS011;12082;51.786;6.018;2023-06-22T14:33:45;80.23;;;68.80;;